Hafnia Daisy — 9HA4205 — position and weather

sailwx.info

Track history (hours):
 
Tides and Currents Weather Stations Pressure Air Temp Water Temp Dewpoint Dewpoint Depression Visibility Wind Speed Wind Dir Waves Ship Positions

Hafnia Daisy

Last reported at 2018-Apr-19 05:40 UTC. Time now 2018-Apr-21 00:23 UTC.
Position N 46°50' W 071°11'.

Length 183 m; draft 7.9 m.

Type: Tanker. MMSI: 249347000.

Date/timePositionNaut miles runAvg speedWind from/ knotsBaromVisibWave heightAir tempDewpointWater temp
2018-Apr-19 05:40N 46°50' W 071°11'8913.1
2018-Apr-18 22:49N 46°04' W 073°02'412.3
2018-Apr-18 22:30N 46°03' W 073°07'  
2018-Apr-15 06:17N 46°01' W 073°10'3 9.4
2018-Apr-15 06:00N 46°03' W 073°09'5 9.6
2018-Apr-15 05:30N 46°04' W 073°02'8710.0
2018-Apr-14 20:47N 46°48' W 071°12'2 8.6
2018-Apr-14 20:30N 46°50' W 071°11'  
2018-Apr-10 03:49N 40°27' W 073°47'3 9.5
2018-Apr-10 03:30N 40°28' W 073°51'5 9.9
2018-Apr-10 03:00N 40°30' W 073°57'612.2
2018-Apr-10 02:30N 40°34' W 074°02'4 7.1
2018-Apr-10 01:58N 40°38' W 074°04'0 0.1
2018-Apr-10 01:28N 40°38' W 074°04'0 0.0
2018-Apr-10 00:58N 40°38' W 074°04'0 0.0
2018-Apr-10 00:28N 40°38' W 074°04'0 0.1
2018-Apr-09 23:58N 40°38' W 074°04'0 0.1
2018-Apr-09 23:28N 40°38' W 074°04'0 0.2
2018-Apr-09 22:58N 40°38' W 074°04'0 0.2
2018-Apr-09 22:28N 40°38' W 074°04'0 0.1
2018-Apr-09 21:58N 40°38' W 074°04'0 0.0
2018-Apr-09 21:28N 40°38' W 074°04'0 0.0
2018-Apr-09 20:58N 40°38' W 074°04'0 0.6
2018-Apr-09 20:31N 40°39' W 074°04'3 5.2
2018-Apr-09 20:00N 40°39' W 074°07'3 6.3
2018-Apr-09 19:31N 40°38' W 074°11'2 3.1
2018-Apr-09 18:49N 40°36' W 074°12'0 0.0
2018-Apr-09 18:25N 40°36' W 074°12'0 0.0
2018-Apr-09 17:52N 40°36' W 074°12'0 0.0
2018-Apr-09 15:25N 40°36' W 074°12'0 0.0
2018-Apr-09 12:37N 40°36' W 074°12'0 0.0
2018-Apr-09 12:19N 40°36' W 074°12'0 0.0
2018-Apr-09 11:55N 40°36' W 074°12'0 0.0
2018-Apr-09 11:25N 40°36' W 074°12'0 0.0
2018-Apr-09 10:55N 40°36' W 074°12'0 0.0
2018-Apr-09 10:25N 40°36' W 074°12'0 0.0
2018-Apr-09 09:43N 40°36' W 074°12'0 0.0
2018-Apr-09 08:37N 40°36' W 074°12'0 0.0
2018-Apr-09 08:01N 40°36' W 074°12'0 0.0
2018-Apr-09 07:55N 40°36' W 074°12'0 0.0
2018-Apr-09 07:25N 40°36' W 074°12'0 0.0
2018-Apr-09 06:55N 40°36' W 074°12'0 0.0
2018-Apr-09 06:25N 40°36' W 074°12'0 0.0
2018-Apr-09 05:55N 40°36' W 074°12'  
Track history (hours):
 
Tides and Currents Weather Stations Pressure Air Temp Water Temp Dewpoint Dewpoint Depression Visibility Wind Speed Wind Dir Waves Ship Positions

Hafnia Daisy

Last reported at 2018-Apr-19 05:40 UTC. Time now 2018-Apr-21 00:23 UTC.
Position N 46°50' W 071°11'.

Length 183 m; draft 7.9 m.

Type: Tanker. MMSI: 249347000.

Date/timePositionNaut miles runAvg speedWind from/ knotsBaromVisibWave heightAir tempDewpointWater temp
2018-Apr-19 05:40N 46°50' W 071°11'8913.1
2018-Apr-18 22:49N 46°04' W 073°02'412.3
2018-Apr-18 22:30N 46°03' W 073°07'  
2018-Apr-15 06:17N 46°01' W 073°10'3 9.4
2018-Apr-15 06:00N 46°03' W 073°09'5 9.6
2018-Apr-15 05:30N 46°04' W 073°02'8710.0
2018-Apr-14 20:47N 46°48' W 071°12'2 8.6
2018-Apr-14 20:30N 46°50' W 071°11'  
2018-Apr-10 03:49N 40°27' W 073°47'3 9.5
2018-Apr-10 03:30N 40°28' W 073°51'5 9.9
2018-Apr-10 03:00N 40°30' W 073°57'612.2
2018-Apr-10 02:30N 40°34' W 074°02'4 7.1
2018-Apr-10 01:58N 40°38' W 074°04'0 0.1
2018-Apr-10 01:28N 40°38' W 074°04'0 0.0
2018-Apr-10 00:58N 40°38' W 074°04'0 0.0
2018-Apr-10 00:28N 40°38' W 074°04'0 0.1
2018-Apr-09 23:58N 40°38' W 074°04'0 0.1
2018-Apr-09 23:28N 40°38' W 074°04'0 0.2
2018-Apr-09 22:58N 40°38' W 074°04'0 0.2
2018-Apr-09 22:28N 40°38' W 074°04'0 0.1
2018-Apr-09 21:58N 40°38' W 074°04'0 0.0
2018-Apr-09 21:28N 40°38' W 074°04'0 0.0
2018-Apr-09 20:58N 40°38' W 074°04'0 0.6
2018-Apr-09 20:31N 40°39' W 074°04'3 5.2
2018-Apr-09 20:00N 40°39' W 074°07'3 6.3
2018-Apr-09 19:31N 40°38' W 074°11'2 3.1
2018-Apr-09 18:49N 40°36' W 074°12'0 0.0
2018-Apr-09 18:25N 40°36' W 074°12'0 0.0
2018-Apr-09 17:52N 40°36' W 074°12'0 0.0
2018-Apr-09 15:25N 40°36' W 074°12'0 0.0
2018-Apr-09 12:37N 40°36' W 074°12'0 0.0
2018-Apr-09 12:19N 40°36' W 074°12'0 0.0
2018-Apr-09 11:55N 40°36' W 074°12'0 0.0
2018-Apr-09 11:25N 40°36' W 074°12'0 0.0
2018-Apr-09 10:55N 40°36' W 074°12'0 0.0
2018-Apr-09 10:25N 40°36' W 074°12'0 0.0
2018-Apr-09 09:43N 40°36' W 074°12'0 0.0
2018-Apr-09 08:37N 40°36' W 074°12'0 0.0
2018-Apr-09 08:01N 40°36' W 074°12'0 0.0
2018-Apr-09 07:55N 40°36' W 074°12'0 0.0
2018-Apr-09 07:25N 40°36' W 074°12'0 0.0
2018-Apr-09 06:55N 40°36' W 074°12'0 0.0
2018-Apr-09 06:25N 40°36' W 074°12'0 0.0
2018-Apr-09 05:55N 40°36' W 074°12'  

Dump ship's entire track history